Time;durP1;ratioP1;P1;durP2;ratioP2;P2;SDS_P1;SDS_P2;PMS_P1;PMS_P2;Temp;Humidity;BMP_temperature;BMP_pressure;BME280_temperature;BME280_humidity;BME280_pressure;Samples;Min_cycle;Max_cycle;Signal;HPM_P1;HPM_P2
2023/05/29 00:00:20;;;;;;;0.50;0.50;;;8.30;99.90;;;;;;5071769;28;20040;-73
2023/05/29 00:02:47;;;;;;;0.40;0.40;;;8.20;99.90;;;;;;5071342;28;20132;-73
2023/05/29 00:05:13;;;;;;;0.52;0.52;;;8.30;99.90;;;;;;5034220;28;20056;-73
2023/05/29 00:07:39;;;;;;;;;;;8.30;99.90;;;;;;5051382;28;20079;-73
2023/05/29 00:10:07;;;;;;;0.40;0.40;;;8.20;99.90;;;;;;5050435;28;19928;-74
2023/05/29 00:12:33;;;;;;;0.40;0.40;;;8.20;99.90;;;;;;5034647;28;20139;-74
2023/05/29 00:14:58;;;;;;;0.60;0.60;;;8.10;99.90;;;;;;5047158;28;20178;-73
2023/05/29 00:17:24;;;;;;;0.40;0.40;;;8.40;99.90;;;;;;5070553;28;20040;-73
2023/05/29 00:19:50;;;;;;;0.50;0.50;;;8.00;99.90;;;;;;5070475;28;20066;-73
2023/05/29 00:22:16;;;;;;;0.50;0.50;;;8.30;99.90;;;;;;5070529;28;20285;-74
2023/05/29 00:24:42;;;;;;;0.40;0.40;;;8.10;99.90;;;;;;5069088;28;20569;-73
2023/05/29 00:27:08;;;;;;;0.50;0.50;;;8.10;99.90;;;;;;5034036;28;20156;-73
2023/05/29 00:29:35;;;;;;;0.45;0.45;;;8.10;99.90;;;;;;5068833;28;20051;-73
2023/05/29 00:32:01;;;;;;;0.50;0.50;;;8.00;99.90;;;;;;5073875;28;20515;-72
2023/05/29 00:34:27;;;;;;;1.70;0.65;;;8.00;99.90;;;;;;5096070;28;20047;-73
2023/05/29 00:36:55;;;;;;;0.60;0.60;;;7.90;99.90;;;;;;5070183;28;20037;-73
2023/05/29 00:39:21;;;;;;;0.45;0.45;;;8.10;99.90;;;;;;5070636;28;20359;-73
2023/05/29 00:41:51;;;;;;;0.55;0.55;;;7.90;99.90;;;;;;5053755;28;20109;-73
2023/05/29 00:44:20;;;;;;;0.50;0.50;;;7.80;99.90;;;;;;5056299;28;20139;-73
2023/05/29 00:46:52;;;;;;;0.50;0.50;;;8.00;99.90;;;;;;5069916;28;20087;-73
2023/05/29 00:49:20;;;;;;;0.43;0.43;;;7.90;99.90;;;;;;5069831;28;20045;-73
2023/05/29 00:51:46;;;;;;;0.52;0.52;;;7.90;99.90;;;;;;5053427;28;20052;-73
2023/05/29 00:54:17;;;;;;;0.40;0.40;;;7.80;99.90;;;;;;5069410;28;20132;-73
2023/05/29 00:56:43;;;;;;;0.52;0.52;;;8.10;99.90;;;;;;5069616;28;20456;-73
2023/05/29 00:59:10;;;;;;;0.50;0.50;;;8.10;99.90;;;;;;5069950;28;20041;-73
2023/05/29 01:01:37;;;;;;;0.35;0.35;;;7.90;99.90;;;;;;5049879;28;20048;-73
2023/05/29 01:04:03;;;;;;;;;;;8.10;99.90;;;;;;5033153;28;20076;-73
2023/05/29 01:06:29;;;;;;;0.40;0.40;;;8.10;99.90;;;;;;5049866;28;20282;-73
2023/05/29 01:08:55;;;;;;;0.50;0.50;;;7.90;99.90;;;;;;5016350;28;20056;-72
2023/05/29 01:11:50;;;;;;;0.43;0.43;;;7.80;99.90;;;;;;5049897;28;20135;-72
2023/05/29 01:14:51;;;;;;;0.40;0.40;;;7.60;99.90;;;;;;5057692;28;20098;-73
2023/05/29 01:17:32;;;;;;;0.57;0.57;;;7.80;99.90;;;;;;5070335;28;20071;-73
2023/05/29 01:20:17;;;;;;;0.40;0.40;;;7.90;99.90;;;;;;5069558;28;20052;-73
2023/05/29 01:23:20;;;;;;;0.40;0.40;;;8.20;99.90;;;;;;5069811;28;20041;-74
2023/05/29 01:26:11;;;;;;;0.50;0.50;;;8.00;99.90;;;;;;5077371;28;20106;-73
2023/05/29 01:28:48;;;;;;;0.60;0.60;;;8.30;99.90;;;;;;5089757;28;20040;-74
2023/05/29 01:31:17;;;;;;;0.57;0.57;;;8.20;99.90;;;;;;5089092;28;20528;-74
2023/05/29 01:33:51;;;;;;;0.50;0.50;;;8.10;99.90;;;;;;5067250;28;20040;-74
2023/05/29 01:36:16;;;;;;;0.60;0.60;;;8.50;99.90;;;;;;5053587;28;20049;-74
2023/05/29 01:38:42;;;;;;;0.50;0.50;;;8.20;99.90;;;;;;5052575;28;20043;-74
2023/05/29 01:41:08;;;;;;;0.60;0.60;;;8.20;99.90;;;;;;5068942;28;20052;-73
2023/05/29 01:43:34;;;;;;;0.38;0.38;;;8.30;99.90;;;;;;5084276;28;20067;-73
2023/05/29 01:46:01;;;;;;;0.50;0.50;;;7.90;99.90;;;;;;5072124;28;20047;-74
2023/05/29 01:48:27;;;;;;;0.50;0.50;;;8.10;99.90;;;;;;5082865;28;20332;-74
2023/05/29 01:50:54;;;;;;;0.40;0.40;;;8.30;99.90;;;;;;5069449;28;20406;-74
2023/05/29 01:53:20;;;;;;;0.40;0.40;;;8.30;99.90;;;;;;5083848;28;20066;-74
2023/05/29 01:55:46;;;;;;;0.40;0.40;;;8.30;99.90;;;;;;5069001;28;20470;-74
2023/05/29 01:58:12;;;;;;;;;;;8.30;99.90;;;;;;5068729;28;20071;-73
2023/05/29 02:00:38;;;;;;;0.47;0.47;;;8.30;99.90;;;;;;5068705;28;20010;-74
2023/05/29 02:03:03;;;;;;;0.40;0.40;;;8.30;99.90;;;;;;5051574;28;20645;-73
2023/05/29 02:05:29;;;;;;;0.50;0.50;;;8.10;99.90;;;;;;5068620;28;20071;-74
2023/05/29 02:07:55;;;;;;;0.80;0.80;;;8.10;99.90;;;;;;5052304;28;20052;-74
2023/05/29 02:10:21;;;;;;;0.45;0.45;;;8.00;99.90;;;;;;5051095;28;20040;-73
2023/05/29 02:12:46;;;;;;;0.40;0.40;;;8.00;99.90;;;;;;5052221;28;20079;-72
2023/05/29 02:15:12;;;;;;;0.50;0.50;;;8.00;99.90;;;;;;5051418;28;20032;-74
2023/05/29 02:17:38;;;;;;;0.40;0.40;;;8.00;99.90;;;;;;5051867;28;20040;-73
2023/05/29 02:20:04;;;;;;;0.40;0.40;;;7.90;99.90;;;;;;5051855;28;20444;-73
2023/05/29 02:22:30;;;;;;;0.45;0.45;;;8.00;99.90;;;;;;5064812;28;20549;-73
2023/05/29 02:24:55;;;;;;;0.50;0.50;;;8.00;99.90;;;;;;5102668;28;20055;-73
2023/05/29 02:27:21;;;;;;;0.40;0.40;;;8.20;99.90;;;;;;5069054;28;20052;-73
2023/05/29 02:29:47;;;;;;;0.50;0.50;;;8.20;99.90;;;;;;5069136;28;20040;-73
2023/05/29 02:32:12;;;;;;;0.52;0.52;;;8.00;99.90;;;;;;5052598;28;20440;-74
2023/05/29 02:34:38;;;;;;;0.43;0.43;;;8.00;99.90;;;;;;5069446;28;20072;-73
2023/05/29 02:37:04;;;;;;;0.40;0.40;;;8.50;99.90;;;;;;5068121;28;20037;-73
2023/05/29 02:39:29;;;;;;;0.50;0.50;;;8.00;99.90;;;;;;5068861;28;20097;-73
2023/05/29 02:41:55;;;;;;;0.40;0.40;;;7.90;99.90;;;;;;5069179;28;20076;-73
2023/05/29 02:44:21;;;;;;;0.40;0.40;;;7.90;99.90;;;;;;5097781;28;20053;-74
2023/05/29 02:46:46;;;;;;;0.50;0.50;;;8.00;99.90;;;;;;5035062;28;20493;-73
2023/05/29 02:49:12;;;;;;;0.40;0.40;;;8.10;99.90;;;;;;5067702;28;20417;-74
2023/05/29 02:51:38;;;;;;;0.40;0.40;;;8.30;99.90;;;;;;5068334;28;20049;-73
2023/05/29 02:54:04;;;;;;;0.43;0.43;;;8.10;99.90;;;;;;5051367;28;20604;-73
2023/05/29 02:56:30;;;;;;;0.47;0.47;;;8.20;99.90;;;;;;5051551;28;20178;-74
2023/05/29 02:58:56;;;;;;;0.50;0.50;;;8.30;99.90;;;;;;5067755;28;20337;-73
2023/05/29 03:01:21;;;;;;;0.32;0.32;;;8.30;99.90;;;;;;5067921;28;20047;-73
2023/05/29 03:03:47;;;;;;;0.50;0.50;;;8.60;99.90;;;;;;5067739;28;20048;-73
2023/05/29 03:06:13;;;;;;;0.50;0.50;;;8.30;99.90;;;;;;5050774;28;20452;-72
2023/05/29 03:08:40;;;;;;;0.57;0.57;;;8.30;99.90;;;;;;5050922;28;20075;-73
2023/05/29 03:11:10;;;;;;;0.40;0.40;;;8.90;99.90;;;;;;5050962;28;20064;-74
2023/05/29 03:13:39;;;;;;;0.38;0.38;;;8.60;99.90;;;;;;5068000;28;20521;-73
2023/05/29 03:16:05;;;;;;;0.50;0.50;;;8.30;99.90;;;;;;5051127;28;20150;-73
2023/05/29 03:18:31;;;;;;;0.43;0.43;;;8.30;99.90;;;;;;5078448;28;20471;-73
2023/05/29 03:20:56;;;;;;;0.40;0.40;;;8.30;99.90;;;;;;5072939;28;20040;-73
2023/05/29 03:23:22;;;;;;;0.40;0.40;;;8.50;99.90;;;;;;5091047;28;20056;-73
2023/05/29 03:25:48;;;;;;;0.40;0.40;;;8.60;99.90;;;;;;5080679;28;20041;-73
2023/05/29 03:28:14;;;;;;;0.40;0.40;;;8.70;99.90;;;;;;5053954;28;20048;-73
2023/05/29 03:30:39;;;;;;;0.50;0.50;;;8.60;99.90;;;;;;5054452;28;20142;-73
2023/05/29 03:33:05;;;;;;;0.40;0.40;;;8.90;99.90;;;;;;5037778;28;20517;-74
2023/05/29 03:35:31;;;;;;;0.50;0.50;;;8.90;99.90;;;;;;5071481;28;20124;-74
2023/05/29 03:37:57;;;;;;;0.38;0.38;;;8.90;99.90;;;;;;5055212;28;20086;-74
2023/05/29 03:40:22;;;;;;;0.40;0.40;;;9.30;99.90;;;;;;5054467;28;20147;-73
2023/05/29 03:42:48;;;;;;;0.40;0.40;;;9.10;99.90;;;;;;5080416;28;20107;-74
2023/05/29 03:45:14;;;;;;;0.40;0.40;;;9.10;99.90;;;;;;5109621;28;20062;-73
2023/05/29 03:47:40;;;;;;;0.40;0.40;;;9.20;99.90;;;;;;5092334;28;20083;-74
2023/05/29 03:50:06;;;;;;;0.40;0.40;;;9.50;99.90;;;;;;5052936;28;20509;-73
2023/05/29 03:52:32;;;;;;;0.40;0.40;;;9.20;99.90;;;;;;5066135;28;20042;-73
2023/05/29 03:54:57;;;;;;;0.30;0.30;;;9.60;99.90;;;;;;5072955;28;20048;-74
2023/05/29 03:57:23;;;;;;;0.50;0.50;;;9.30;99.90;;;;;;5054201;28;20460;-74
2023/05/29 03:59:49;;;;;;;0.32;0.32;;;9.70;99.90;;;;;;5054306;28;20558;-74
2023/05/29 04:02:15;;;;;;;0.40;0.40;;;9.60;99.90;;;;;;5054646;28;20098;-73
2023/05/29 04:04:40;;;;;;;0.30;0.30;;;9.50;99.90;;;;;;5054100;28;20051;-74
2023/05/29 04:07:06;;;;;;;0.22;0.22;;;9.50;99.90;;;;;;5070832;28;20048;-74
2023/05/29 04:09:35;;;;;;;;;;;9.50;99.90;;;;;;5054486;28;20040;-73
2023/05/29 04:12:05;;;;;;;0.30;0.30;;;9.60;99.90;;;;;;5071248;28;20350;-74
2023/05/29 04:14:31;;;;;;;0.25;0.25;;;9.60;99.90;;;;;;5079117;28;20456;-75
2023/05/29 04:16:57;;;;;;;0.30;0.30;;;10.00;99.90;;;;;;5090761;28;20040;-74
2023/05/29 04:19:22;;;;;;;0.35;0.35;;;9.70;99.90;;;;;;5090268;28;20043;-73
2023/05/29 04:21:48;;;;;;;0.40;0.40;;;9.90;99.90;;;;;;5091064;28;20048;-73
2023/05/29 04:24:14;;;;;;;0.35;0.35;;;9.90;99.90;;;;;;5107576;28;20044;-73
2023/05/29 04:26:41;;;;;;;0.40;0.40;;;9.80;99.90;;;;;;5090025;28;20052;-74
2023/05/29 04:29:08;;;;;;;3.17;1.13;;;9.70;99.90;;;;;;5054069;28;20049;-73
2023/05/29 04:31:36;;;;;;;0.50;0.50;;;9.70;99.90;;;;;;5036398;28;20044;-73
2023/05/29 04:34:04;;;;;;;3.22;0.70;;;9.80;99.90;;;;;;5054084;28;20497;-73
2023/05/29 04:36:32;;;;;;;0.30;0.30;;;9.70;99.90;;;;;;5053615;28;20044;-73
2023/05/29 04:38:58;;;;;;;0.35;0.35;;;9.70;99.90;;;;;;5070180;28;20101;-73
2023/05/29 04:41:29;;;;;;;;;;;9.80;99.90;;;;;;5070170;28;20638;-73
2023/05/29 04:43:58;;;;;;;0.40;0.40;;;9.90;99.90;;;;;;5084460;28;20016;-74
2023/05/29 04:46:24;;;;;;;0.40;0.40;;;9.70;99.90;;;;;;5050793;28;20387;-74
2023/05/29 04:48:54;;;;;;;2.33;1.88;;;9.70;99.90;;;;;;5043990;28;20173;-74
2023/05/29 04:51:21;;;;;;;0.52;0.52;;;9.80;99.90;;;;;;5037353;28;20040;-73
2023/05/29 04:53:47;;;;;;;0.30;0.30;;;9.90;99.90;;;;;;5070306;28;20078;-74
2023/05/29 04:56:13;;;;;;;;;;;9.90;99.90;;;;;;5053782;28;20032;-74
2023/05/29 04:58:40;;;;;;;0.30;0.30;;;10.20;99.90;;;;;;5071478;28;19920;-74
2023/05/29 05:01:07;;;;;;;0.40;0.40;;;10.40;99.90;;;;;;5071158;28;20257;-73
2023/05/29 05:03:34;;;;;;;0.50;0.50;;;10.10;99.90;;;;;;5069586;28;20048;-74
2023/05/29 05:06:04;;;;;;;;;;;10.20;99.90;;;;;;5053657;28;20047;-74
2023/05/29 05:08:30;;;;;;;0.30;0.30;;;10.30;99.90;;;;;;5069333;28;19924;-74
2023/05/29 05:10:56;;;;;;;0.85;0.85;;;10.20;99.90;;;;;;5046686;28;20044;-74
2023/05/29 05:13:22;;;;;;;0.25;0.25;;;10.20;99.90;;;;;;5088993;28;20427;-74
2023/05/29 05:15:48;;;;;;;0.40;0.40;;;10.30;99.90;;;;;;5069787;28;20070;-74
2023/05/29 05:18:13;;;;;;;0.50;0.50;;;10.30;99.90;;;;;;5053591;28;20474;-73
2023/05/29 05:20:39;;;;;;;0.52;0.52;;;10.50;99.90;;;;;;5053756;28;20509;-74
2023/05/29 05:23:05;;;;;;;0.40;0.40;;;10.60;99.90;;;;;;5070267;28;20049;-74
2023/05/29 05:25:32;;;;;;;0.50;0.50;;;10.70;99.90;;;;;;5069387;28;20106;-74
2023/05/29 05:27:58;;;;;;;0.30;0.30;;;11.10;99.90;;;;;;5053398;28;20105;-74
2023/05/29 05:30:24;;;;;;;0.30;0.30;;;11.20;99.90;;;;;;5052592;28;20052;-74
2023/05/29 05:32:49;;;;;;;0.40;0.40;;;11.50;99.90;;;;;;5069238;28;20049;-74
2023/05/29 05:35:15;;;;;;;0.30;0.30;;;11.60;99.90;;;;;;5069162;28;20040;-74
2023/05/29 05:37:41;;;;;;;0.47;0.47;;;11.40;99.90;;;;;;5069111;28;20036;-74
2023/05/29 05:40:08;;;;;;;0.68;0.68;;;11.60;99.90;;;;;;5036046;28;20044;-74
2023/05/29 05:42:34;;;;;;;0.30;0.30;;;11.70;99.90;;;;;;5059070;28;20126;-73
2023/05/29 05:44:59;;;;;;;0.50;0.50;;;11.80;99.90;;;;;;5076791;28;20048;-74
2023/05/29 05:47:27;;;;;;;0.30;0.30;;;11.80;99.90;;;;;;5069013;28;20044;-74
2023/05/29 05:49:53;;;;;;;0.60;0.60;;;12.00;99.90;;;;;;5053160;28;20088;-75
2023/05/29 05:52:19;;;;;;;;;;;11.80;99.90;;;;;;5069080;28;20045;-74
2023/05/29 05:54:44;;;;;;;0.30;0.30;;;11.80;99.90;;;;;;5068883;28;19927;-74
2023/05/29 05:57:11;;;;;;;3.60;0.93;;;11.90;99.90;;;;;;5052163;28;20046;-74
2023/05/29 05:59:36;;;;;;;0.30;0.30;;;12.10;99.90;;;;;;5068730;28;20052;-74
2023/05/29 06:02:03;;;;;;;0.47;0.47;;;12.00;99.90;;;;;;5068877;28;20044;-74
2023/05/29 06:04:29;;;;;;;0.50;0.50;;;12.00;99.90;;;;;;5068205;28;20101;-75
2023/05/29 06:06:55;;;;;;;0.40;0.40;;;12.00;99.90;;;;;;5077608;28;20054;-74
2023/05/29 06:09:21;;;;;;;0.47;0.47;;;12.00;99.90;;;;;;5089777;28;20095;-74
2023/05/29 06:11:47;;;;;;;0.50;0.50;;;12.10;99.90;;;;;;5089556;28;20509;-74
2023/05/29 06:14:14;;;;;;;0.30;0.30;;;12.10;99.90;;;;;;5064892;28;20102;-75
2023/05/29 06:16:40;;;;;;;0.73;0.73;;;12.10;99.90;;;;;;5069071;28;20048;-75
2023/05/29 06:19:05;;;;;;;0.20;0.20;;;12.10;99.90;;;;;;5068605;28;20067;-75
2023/05/29 06:21:32;;;;;;;0.32;0.32;;;12.50;99.90;;;;;;5051908;28;20062;-74
2023/05/29 06:23:57;;;;;;;0.40;0.40;;;12.20;99.90;;;;;;5051830;28;20044;-74
2023/05/29 06:26:27;;;;;;;0.30;0.30;;;12.30;99.90;;;;;;5051193;28;20050;-74
2023/05/29 06:28:53;;;;;;;0.63;0.63;;;12.40;99.90;;;;;;5068827;28;20197;-75
2023/05/29 06:31:18;;;;;;;;;;;12.30;99.90;;;;;;5069031;28;20051;-75
2023/05/29 06:33:45;;;;;;;0.40;0.40;;;12.30;99.90;;;;;;5034644;28;20370;-75
2023/05/29 06:36:10;;;;;;;;;;;12.30;99.90;;;;;;5068616;28;20052;-75
2023/05/29 06:38:36;;;;;;;0.20;0.20;;;12.40;99.90;;;;;;5050998;28;19924;-75
2023/05/29 06:41:02;;;;;;;0.35;0.35;;;12.60;99.90;;;;;;5048181;28;20079;-75
2023/05/29 06:43:28;;;;;;;0.30;0.30;;;12.70;99.90;;;;;;5075657;28;20059;-74
2023/05/29 06:45:54;;;;;;;2.00;0.63;;;12.60;99.90;;;;;;5068846;28;20101;-75
2023/05/29 06:48:21;;;;;;;0.38;0.38;;;12.70;99.90;;;;;;5085419;28;20040;-75
2023/05/29 06:50:50;;;;;;;0.40;0.40;;;12.70;99.90;;;;;;5067626;28;20060;-75
2023/05/29 06:53:16;;;;;;;0.47;0.40;;;12.60;99.90;;;;;;5051654;28;20044;-75
2023/05/29 06:55:41;;;;;;;0.32;0.32;;;12.60;99.90;;;;;;5069430;28;20490;-74
2023/05/29 06:58:07;;;;;;;0.20;0.20;;;12.60;99.90;;;;;;5073448;28;20040;-74
2023/05/29 07:00:33;;;;;;;0.30;0.30;;;12.70;99.90;;;;;;5055075;28;20446;-75
2023/05/29 07:02:58;;;;;;;0.50;0.50;;;12.60;99.90;;;;;;5062185;28;20039;-74
2023/05/29 07:05:26;;;;;;;;;;;12.60;99.90;;;;;;5075725;28;20473;-73
2023/05/29 07:07:51;;;;;;;0.25;0.25;;;12.70;99.90;;;;;;5076013;28;19920;-74
2023/05/29 07:10:17;;;;;;;0.30;0.30;;;12.50;99.90;;;;;;5109472;28;20135;-73
2023/05/29 07:12:43;;;;;;;0.38;0.38;;;12.40;99.90;;;;;;5092388;28;20044;-73
2023/05/29 07:15:09;;;;;;;0.30;0.30;;;12.60;99.90;;;;;;5077063;28;20517;-74
2023/05/29 07:17:35;;;;;;;;;;;12.40;99.90;;;;;;5055446;28;20071;-74
2023/05/29 07:20:01;;;;;;;0.20;0.20;;;12.70;99.90;;;;;;5088871;28;19978;-74
2023/05/29 07:22:26;;;;;;;0.30;0.30;;;12.70;99.90;;;;;;5071282;28;20429;-74
2023/05/29 07:24:52;;;;;;;0.40;0.40;;;12.60;99.90;;;;;;5072434;28;20119;-75
2023/05/29 07:27:17;;;;;;;;;;;12.80;99.90;;;;;;5056357;28;20048;-74
2023/05/29 07:29:43;;;;;;;0.30;0.30;;;13.80;99.90;;;;;;5054949;28;19924;-74
2023/05/29 07:32:09;;;;;;;0.30;0.30;;;12.70;99.90;;;;;;5071771;28;20527;-74
2023/05/29 07:34:35;;;;;;;0.25;0.25;;;12.70;99.90;;;;;;5071118;28;20041;-74
2023/05/29 07:37:03;;;;;;;0.30;0.30;;;12.80;99.90;;;;;;5071446;28;20508;-74
2023/05/29 07:39:32;;;;;;;0.55;0.55;;;13.10;99.90;;;;;;5070943;28;20040;-74
2023/05/29 07:42:00;;;;;;;0.45;0.45;;;13.30;99.90;;;;;;5056267;28;20370;-74
2023/05/29 07:44:26;;;;;;;0.50;0.50;;;13.30;99.90;;;;;;5050152;28;20052;-74
2023/05/29 07:46:52;;;;;;;0.32;0.32;;;13.60;99.90;;;;;;5070859;28;20047;-74
2023/05/29 07:49:19;;;;;;;0.60;0.60;;;13.70;99.90;;;;;;5071254;28;20052;-73
2023/05/29 07:51:45;;;;;;;0.20;0.20;;;13.90;99.90;;;;;;5070642;28;20239;-74
2023/05/29 07:54:11;;;;;;;1.08;1.08;;;13.90;99.90;;;;;;5054444;28;20502;-74
2023/05/29 07:56:37;;;;;;;;;;;13.60;99.90;;;;;;5071191;28;20091;-73
2023/05/29 07:59:03;;;;;;;0.43;0.43;;;13.40;99.90;;;;;;5076272;28;19916;-73
2023/05/29 08:01:29;;;;;;;0.30;0.30;;;13.40;99.90;;;;;;5074711;28;20035;-73
2023/05/29 08:03:54;;;;;;;;;;;13.50;99.90;;;;;;5092170;28;20048;-73
2023/05/29 08:06:20;;;;;;;0.40;0.40;;;13.40;99.90;;;;;;5090596;28;19927;-73
2023/05/29 08:08:47;;;;;;;0.32;0.32;;;13.50;99.90;;;;;;5090598;28;20517;-73
2023/05/29 08:11:13;;;;;;;0.40;0.40;;;13.60;99.90;;;;;;5091518;28;20121;-73
2023/05/29 08:13:38;;;;;;;0.30;0.30;;;13.80;99.90;;;;;;5087952;28;20477;-74
2023/05/29 08:16:04;;;;;;;;;;;13.80;99.90;;;;;;5071617;28;20033;-74
2023/05/29 08:18:32;;;;;;;1.95;0.40;;;13.70;99.90;;;;;;5071151;28;19924;-74
2023/05/29 08:20:58;;;;;;;0.20;0.20;;;14.00;99.90;;;;;;5071299;28;20618;-73
2023/05/29 08:23:24;;;;;;;;;;;14.00;99.90;;;;;;5071854;28;20044;-74
2023/05/29 08:25:50;;;;;;;0.30;0.30;;;13.90;99.90;;;;;;5054157;28;20445;-74
2023/05/29 08:28:15;;;;;;;1.27;1.17;;;13.90;99.90;;;;;;5054489;28;20041;-74
2023/05/29 08:30:41;;;;;;;;;;;14.00;99.90;;;;;;5071112;28;20041;-73
2023/05/29 08:33:07;;;;;;;0.85;0.82;;;14.00;99.90;;;;;;5070784;28;19920;-74
2023/05/29 08:35:33;;;;;;;0.30;0.30;;;13.90;99.90;;;;;;5070958;28;20046;-74
2023/05/29 08:37:59;;;;;;;1.50;0.80;;;13.80;99.90;;;;;;5071959;28;20036;-73
2023/05/29 08:40:25;;;;;;;;;;;13.80;99.90;;;;;;5054380;28;20059;-74
2023/05/29 08:43:02;;;;;;;0.20;0.20;;;13.80;99.90;;;;;;5080110;28;19920;-72
2023/05/29 08:45:29;;;;;;;1.30;1.25;;;13.80;99.90;;;;;;5074357;28;20044;-73
2023/05/29 08:48:00;;;;;;;0.38;0.38;;;13.80;99.90;;;;;;5053912;28;20153;-73
2023/05/29 08:50:26;;;;;;;0.77;0.77;;;13.90;99.90;;;;;;5070999;28;20032;-73
2023/05/29 08:52:52;;;;;;;;;;;14.10;99.90;;;;;;5070620;28;20517;-73
2023/05/29 08:55:18;;;;;;;0.22;0.22;;;14.20;99.90;;;;;;5055085;28;20014;-74
2023/05/29 08:57:43;;;;;;;;;;;14.20;99.90;;;;;;5054185;28;20044;-73
2023/05/29 09:00:15;;;;;;;0.30;0.30;;;14.30;99.90;;;;;;5070451;28;19931;-74
2023/05/29 09:02:43;;;;;;;0.40;0.40;;;14.30;99.90;;;;;;5053127;28;20033;-74
2023/05/29 09:05:10;;;;;;;0.20;0.20;;;14.40;99.90;;;;;;5070884;28;20053;-74
2023/05/29 09:07:38;;;;;;;0.20;0.20;;;14.40;99.90;;;;;;5069963;28;20052;-74
2023/05/29 09:10:06;;;;;;;0.32;0.32;;;14.50;99.90;;;;;;5070454;28;20067;-74
2023/05/29 09:12:33;;;;;;;0.30;0.30;;;14.70;99.90;;;;;;5069729;28;20135;-74
2023/05/29 09:14:59;;;;;;;0.75;0.75;;;14.70;99.90;;;;;;5070009;28;20074;-73
2023/05/29 09:17:30;;;;;;;0.50;0.50;;;14.50;99.90;;;;;;5069622;28;20044;-74
2023/05/29 09:19:55;;;;;;;0.25;0.25;;;14.50;99.90;;;;;;5068857;28;20037;-73
2023/05/29 09:22:21;;;;;;;0.13;0.13;;;14.70;99.90;;;;;;5069411;28;20043;-74
2023/05/29 09:24:47;;;;;;;;;;;14.90;99.90;;;;;;5067494;28;20575;-74
2023/05/29 09:27:13;;;;;;;0.55;0.55;;;15.20;99.90;;;;;;5049796;28;19990;-74
2023/05/29 09:29:41;;;;;;;0.20;0.20;;;15.50;99.90;;;;;;5032934;28;20529;-74
2023/05/29 09:32:08;;;;;;;1.85;1.38;;;15.30;99.90;;;;;;5049164;28;20045;-74
2023/05/29 09:34:35;;;;;;;0.20;0.20;;;15.20;99.90;;;;;;5061379;28;20048;-74
2023/05/29 09:37:08;;;;;;;3.10;2.25;;;15.20;99.90;;;;;;5052697;28;20040;-74
2023/05/29 09:39:54;;;;;;;1.10;0.70;;;15.30;99.90;;;;;;5069234;28;20044;-74
2023/05/29 09:42:20;;;;;;;0.28;0.28;;;15.10;99.90;;;;;;5057043;28;20401;-74
2023/05/29 09:44:51;;;;;;;0.20;0.20;;;15.10;99.90;;;;;;5095295;28;20045;-74
2023/05/29 09:47:17;;;;;;;0.75;0.30;;;15.10;99.90;;;;;;5069075;28;20396;-74
2023/05/29 09:49:45;;;;;;;0.70;0.70;;;15.20;99.90;;;;;;5068572;28;20502;-74
2023/05/29 09:52:15;;;;;;;2.20;0.45;;;15.30;99.90;;;;;;5069490;28;20127;-74
2023/05/29 09:54:48;;;;;;;0.65;0.65;;;15.20;99.90;;;;;;5069248;28;20421;-74
2023/05/29 09:57:16;;;;;;;0.30;0.30;;;15.10;99.90;;;;;;5032421;28;20045;-74
2023/05/29 09:59:45;;;;;;;0.63;0.63;;;15.20;99.90;;;;;;5048616;28;20033;-73
2023/05/29 10:02:13;;;;;;;1.95;1.17;;;15.20;99.90;;;;;;5032505;28;20040;-74
2023/05/29 10:04:43;;;;;;;0.82;0.82;;;15.30;99.90;;;;;;5049141;28;20131;-74
2023/05/29 10:07:32;;;;;;;0.30;0.30;;;15.40;99.90;;;;;;5049245;28;20053;-74
2023/05/29 10:10:03;;;;;;;0.40;0.40;;;15.50;99.90;;;;;;5048709;28;20045;-73
2023/05/29 10:12:31;;;;;;;0.20;0.20;;;15.40;99.90;;;;;;5032509;28;20087;-74
2023/05/29 10:14:59;;;;;;;0.22;0.22;;;15.50;99.90;;;;;;5062041;28;20048;-74
2023/05/29 10:17:28;;;;;;;0.40;0.40;;;15.60;99.90;;;;;;5085768;28;20041;-74
2023/05/29 10:19:58;;;;;;;0.30;0.30;;;15.90;99.90;;;;;;5068344;28;20102;-73
2023/05/29 10:22:26;;;;;;;0.30;0.30;;;15.80;99.90;;;;;;5045138;28;20033;-74
2023/05/29 10:24:52;;;;;;;0.20;0.20;;;15.50;99.90;;;;;;5050510;28;20492;-73
2023/05/29 10:27:20;;;;;;;0.50;0.50;;;15.30;99.90;;;;;;5068765;28;20389;-73
2023/05/29 10:30:10;;;;;;;0.82;0.45;;;15.40;99.90;;;;;;5067213;28;20059;-74
2023/05/29 10:33:03;;;;;;;0.30;0.30;;;15.20;99.90;;;;;;5068584;28;20070;-74
2023/05/29 10:35:47;;;;;;;0.30;0.30;;;15.00;99.90;;;;;;5054835;28;20158;-74
2023/05/29 10:38:16;;;;;;;0.57;0.50;;;15.00;99.90;;;;;;5051943;28;20283;-74
2023/05/29 10:40:45;;;;;;;0.30;0.30;;;14.90;99.90;;;;;;5051662;28;20087;-74
2023/05/29 10:43:34;;;;;;;0.50;0.50;;;15.10;99.90;;;;;;5046578;28;20101;-74
2023/05/29 10:46:03;;;;;;;0.20;0.20;;;15.40;99.90;;;;;;5047848;28;20127;-74
2023/05/29 10:48:38;;;;;;;2.83;0.75;;;15.40;99.90;;;;;;5042186;28;20040;-74
2023/05/29 10:51:07;;;;;;;2.50;1.05;;;15.20;99.90;;;;;;5067895;28;20043;-74
2023/05/29 10:53:33;;;;;;;0.57;0.57;;;15.40;99.90;;;;;;5051417;28;20055;-74
2023/05/29 10:55:59;;;;;;;;;;;15.30;99.90;;;;;;5078435;28;20138;-74
2023/05/29 10:58:26;;;;;;;0.20;0.20;;;15.50;99.90;;;;;;5088096;28;20071;-74
2023/05/29 11:00:54;;;;;;;0.10;0.10;;;15.50;99.90;;;;;;5087906;28;20119;-73
2023/05/29 11:03:25;;;;;;;0.65;0.65;;;15.20;99.90;;;;;;5072030;28;20133;-74
2023/05/29 11:06:01;;;;;;;1.10;0.68;;;14.90;99.90;;;;;;5088647;28;20044;-73
2023/05/29 11:08:42;;;;;;;0.57;0.50;;;14.90;99.90;;;;;;5072136;28;20552;-74
2023/05/29 11:11:14;;;;;;;4.00;1.63;;;15.00;99.90;;;;;;5105260;28;20127;-74
2023/05/29 11:13:44;;;;;;;0.43;0.43;;;15.10;99.90;;;;;;5068120;28;20143;-76
2023/05/29 11:16:14;;;;;;;2.38;1.42;;;15.10;99.90;;;;;;5067758;28;20409;-74
2023/05/29 11:18:41;;;;;;;0.20;0.20;;;15.10;99.90;;;;;;5060904;28;20049;-74
2023/05/29 11:21:23;;;;;;;0.93;0.93;;;15.20;99.90;;;;;;5031015;28;20379;-75
2023/05/29 11:23:51;;;;;;;0.45;0.45;;;15.20;99.90;;;;;;5031103;28;20478;-74
2023/05/29 11:26:19;;;;;;;0.25;0.25;;;15.20;99.90;;;;;;5062885;28;20374;-74
2023/05/29 11:28:46;;;;;;;0.30;0.30;;;15.10;99.90;;;;;;5068434;28;20148;-74
2023/05/29 11:31:13;;;;;;;0.32;0.32;;;15.00;99.90;;;;;;5068349;28;20044;-74
2023/05/29 11:33:43;;;;;;;0.30;0.30;;;15.10;99.90;;;;;;5066863;28;20044;-73
2023/05/29 11:36:10;;;;;;;0.10;0.10;;;15.30;99.90;;;;;;5068454;28;20040;-74
2023/05/29 11:38:37;;;;;;;1.27;0.82;;;15.50;99.90;;;;;;5068931;28;20102;-74
2023/05/29 11:41:03;;;;;;;0.40;0.40;;;15.50;99.90;;;;;;5051386;28;20065;-73
2023/05/29 11:43:29;;;;;;;;;;;15.60;99.90;;;;;;5086389;28;20058;-74
2023/05/29 11:45:55;;;;;;;0.30;0.30;;;15.60;99.90;;;;;;5054583;28;20381;-74
2023/05/29 11:48:21;;;;;;;;;;;15.70;99.90;;;;;;5056478;28;20052;-73
2023/05/29 11:50:47;;;;;;;0.20;0.20;;;15.70;99.90;;;;;;5071939;28;19925;-74
2023/05/29 11:53:12;;;;;;;;;;;16.00;99.90;;;;;;5086834;28;20062;-73
2023/05/29 11:55:38;;;;;;;0.47;0.47;;;16.00;99.90;;;;;;5072039;28;19923;-74
2023/05/29 11:58:04;;;;;;;;;;;15.80;99.90;;;;;;5072137;28;20048;-74
2023/05/29 12:00:36;;;;;;;0.15;0.15;;;15.70;99.90;;;;;;5071550;28;19916;-74
2023/05/29 12:03:06;;;;;;;0.20;0.20;;;15.50;99.90;;;;;;5054379;28;20048;-74
2023/05/29 12:05:43;;;;;;;0.50;0.50;;;15.60;99.90;;;;;;5054503;28;20040;-74
2023/05/29 12:08:09;;;;;;;0.30;0.30;;;15.50;99.90;;;;;;5070670;28;20048;-74
2023/05/29 12:10:35;;;;;;;5.32;0.85;;;15.60;99.90;;;;;;5054645;28;20093;-74
2023/05/29 12:13:01;;;;;;;;;;;15.60;99.90;;;;;;5071255;28;20530;-74
2023/05/29 12:15:27;;;;;;;0.25;0.25;;;15.90;99.90;;;;;;5059939;28;19936;-74
2023/05/29 12:17:54;;;;;;;0.52;0.52;;;15.60;99.90;;;;;;5034446;28;20477;-74
2023/05/29 12:20:23;;;;;;;0.95;0.95;;;15.70;99.90;;;;;;5018493;28;20079;-74
2023/05/29 12:22:49;;;;;;;0.15;0.15;;;15.90;99.90;;;;;;5035452;28;20073;-75
2023/05/29 12:25:20;;;;;;;0.30;0.30;;;16.10;99.90;;;;;;5057404;28;20068;-74
2023/05/29 12:27:47;;;;;;;0.43;0.43;;;16.00;99.90;;;;;;5071354;28;20044;-74
2023/05/29 12:30:16;;;;;;;0.55;0.40;;;16.20;99.90;;;;;;5070462;28;20490;-75
2023/05/29 12:32:43;;;;;;;0.20;0.20;;;16.10;99.90;;;;;;5071180;28;20051;-74
2023/05/29 12:35:24;;;;;;;0.63;0.63;;;16.00;99.90;;;;;;5070228;28;20040;-74
2023/05/29 12:37:49;;;;;;;0.20;0.20;;;16.10;99.90;;;;;;5054355;28;20076;-75
2023/05/29 12:40:22;;;;;;;;;;;16.30;99.90;;;;;;5070860;28;20536;-74
2023/05/29 12:42:49;;;;;;;0.40;0.40;;;16.50;99.90;;;;;;5079306;28;19973;-74
2023/05/29 12:45:17;;;;;;;0.20;0.20;;;16.50;99.90;;;;;;5059076;28;20047;-75
2023/05/29 12:48:02;;;;;;;0.20;0.20;;;16.90;99.90;;;;;;5073965;28;20044;-74
2023/05/29 12:50:33;;;;;;;0.40;0.40;;;17.10;99.90;;;;;;5071017;28;20040;-75
2023/05/29 12:53:04;;;;;;;0.20;0.20;;;17.40;99.90;;;;;;5082829;28;20052;-74
2023/05/29 12:55:38;;;;;;;0.47;0.47;;;17.50;99.90;;;;;;5069976;28;20076;-74
2023/05/29 12:58:09;;;;;;;0.60;0.60;;;17.60;99.90;;;;;;5069973;28;20053;-73
2023/05/29 13:00:38;;;;;;;0.95;0.95;;;17.90;99.90;;;;;;5053367;28;20040;-74